Terminal Aerodrome Forecast
Issued by NWS

Home | Current Version | Previous Version | Text Only | Print | Product List | Glossary On
Versions: 1 2 3 4 5 6 7 8 9 10 11 12 13 14
000
FTUS45 KRIW 282300
TAFJAC
TAF
KJAC 282340Z 2900/2924 18014G20KT P6SM SCT110 BKN200 WS018/24035KT
     FM290300 20015G23KT P6SM SCT040 OVC070 WS018/24040KT
     FM291000 21014G22KT 3SM -SN SCT015 OVC024 WS015/24035KT
     FM291800 21018G26KT 2SM -SN SCT010 BKN018
      AMD LTD TO CLD VIS AND WIND=

USA.gov is the U.S. government's official web portal to all federal, state and local government web resources and services.